Vingaren — OZ2131 — position and weather

sailwx.info

Track history (hours):
 
Tides and Currents Weather Stations Pressure Air Temp Water Temp Dewpoint Dewpoint Depression Visibility Wind Speed Wind Dir Waves Ship Positions

Vingaren

Last reported at 2016-Feb-11 16:33 UTC. Time now 2016-Feb-11 16:51 UTC.
Position N 55°06' E 014°15'.

Length 89 m; draft 3.9 m.

Type: Cargo ship. MMSI: 231844000.

Date/timePositionNaut miles runAvg speedWind from/ knotsBaromVisibWave heightAir tempDewpointWater temp
2016-Feb-11 16:33N 55°06' E 014°15'9 9.4
2016-Feb-11 15:33N 55°09' E 013°59'10 9.8
2016-Feb-11 14:33N 55°11' E 013°42'10 9.5
2016-Feb-11 13:29N 55°12' E 013°24'10 9.9
2016-Feb-11 12:31N 55°14' E 013°08'9 9.7
2016-Feb-11 11:33N 55°15' E 012°51'8 8.5
2016-Feb-11 10:33N 55°20' E 012°39'9 9.2
2016-Feb-11 09:33N 55°29' E 012°41'9 8.9
2016-Feb-11 08:33N 55°38' E 012°42'9 8.7
2016-Feb-11 07:33N 55°46' E 012°41'9 9.3
2016-Feb-11 06:33N 55°56' E 012°38'8 8.3
2016-Feb-11 05:33N 56°04' E 012°37'8 8.1
2016-Feb-11 04:33N 56°09' E 012°25'80 9.4
2016-Feb-10 20:05N 56°56' E 010°28'5 9.3
2016-Feb-10 19:33N 56°58' E 010°20'7 6.6
2016-Feb-10 18:33N 57°01' E 010°09'4 4.0
2016-Feb-10 17:28N 57°03' E 010°03'0 0.0
2016-Feb-10 16:31N 57°03' E 010°03'0 0.0
2016-Feb-10 15:31N 57°03' E 010°03'0 0.0
2016-Feb-10 14:31N 57°03' E 010°03'0 0.0
2016-Feb-10 13:28N 57°03' E 010°03'0 0.0
2016-Feb-10 12:31N 57°03' E 010°03'0 0.0
2016-Feb-10 11:31N 57°03' E 010°03'0 0.0
2016-Feb-10 10:31N 57°03' E 010°03'0 0.0
2016-Feb-10 09:31N 57°03' E 010°03'0 0.0
2016-Feb-10 08:28N 57°03' E 010°03'0 0.0
2016-Feb-10 07:28N 57°03' E 010°03'0 0.0
2016-Feb-10 06:31N 57°03' E 010°03'0 0.0
2016-Feb-10 05:31N 57°03' E 010°03'0 0.0
2016-Feb-10 04:31N 57°03' E 010°03'0 0.0
2016-Feb-10 03:31N 57°03' E 010°03'0 0.0
2016-Feb-10 02:31N 57°03' E 010°03'0 0.0
2016-Feb-10 01:19N 57°03' E 010°03'0 0.0
2016-Feb-10 00:31N 57°03' E 010°03'0 0.0
2016-Feb-09 23:31N 57°03' E 010°03'0 0.0
2016-Feb-09 22:31N 57°03' E 010°03'0 0.0
2016-Feb-09 21:28N 57°03' E 010°03'0 0.0
2016-Feb-09 20:31N 57°03' E 010°03'0 0.0
2016-Feb-09 19:31N 57°03' E 010°03'0 0.0
2016-Feb-09 18:31N 57°03' E 010°03'0 0.0
2016-Feb-09 17:33N 57°03' E 010°03'0 0.0
2016-Feb-09 16:33N 57°03' E 010°03'0 0.0
2016-Feb-09 15:33N 57°03' E 010°03'0 0.0
2016-Feb-09 14:33N 57°03' E 010°03'0 0.0
2016-Feb-09 13:30N 57°03' E 010°03'0 0.0
2016-Feb-09 12:33N 57°03' E 010°03'0 0.0
2016-Feb-09 11:33N 57°03' E 010°03'0 0.0
2016-Feb-09 10:33N 57°03' E 010°03'0 0.0
2016-Feb-09 09:33N 57°03' E 010°03'0 0.0
2016-Feb-09 08:33N 57°03' E 010°03'0 0.0
2016-Feb-09 07:30N 57°03' E 010°03'0 0.0
2016-Feb-09 06:30N 57°03' E 010°03'0 0.0
2016-Feb-09 05:33N 57°03' E 010°03'0 0.0
2016-Feb-09 04:30N 57°03' E 010°03'0 0.0
2016-Feb-09 03:30N 57°03' E 010°03'0 0.0
2016-Feb-09 02:30N 57°03' E 010°03'0 0.0
2016-Feb-09 01:33N 57°03' E 010°03'0 0.0
2016-Feb-09 00:33N 57°03' E 010°03'0 0.0
2016-Feb-08 23:30N 57°03' E 010°03'0 0.0
2016-Feb-08 22:30N 57°03' E 010°03'0 0.0
2016-Feb-08 21:33N 57°03' E 010°03'0 0.0
2016-Feb-08 20:33N 57°03' E 010°03'0 0.0
2016-Feb-08 19:30N 57°03' E 010°03'0 0.0
2016-Feb-08 18:30N 57°03' E 010°03'0 0.0
2016-Feb-08 17:33N 57°03' E 010°03'0 0.0
2016-Feb-08 16:27N 57°03' E 010°03'0 0.0
2016-Feb-08 15:30N 57°03' E 010°03'0 0.0
2016-Feb-08 14:30N 57°03' E 010°03'0 0.0
2016-Feb-08 13:33N 57°03' E 010°03'0 0.0
2016-Feb-08 12:33N 57°03' E 010°03'0 0.0
2016-Feb-08 11:33N 57°03' E 010°03'0 0.0
2016-Feb-08 10:33N 57°03' E 010°03'0 0.0
2016-Feb-08 09:24N 57°03' E 010°03'0 0.0
2016-Feb-08 08:23N 57°03' E 010°03'0 0.0
2016-Feb-08 07:17N 57°03' E 010°03'0 0.1
2016-Feb-08 06:33N 57°03' E 010°03'95 9.5
2016-Feb-07 20:31N 56°10' E 012°26'1212.2
2016-Feb-07 19:34N 56°02' E 012°40'1111.4
2016-Feb-07 18:33N 55°50' E 012°43'1211.9
2016-Feb-07 17:33N 55°39' E 012°42'1111.4
2016-Feb-07 16:34N 55°27' E 012°42'10 9.8
2016-Feb-07 15:33N 55°18' E 012°45'1010.0
2016-Feb-07 14:33N 55°16' E 013°03'1010.3
2016-Feb-07 13:33N 55°15' E 013°21'1110.9
2016-Feb-07 12:33N 55°14' E 013°40'1110.7
2016-Feb-07 11:33N 55°14' E 013°58'1010.2
2016-Feb-07 10:33N 55°14' E 014°16'1010.1
2016-Feb-07 09:33N 55°22' E 014°28'1010.0
2016-Feb-07 08:33N 55°28' E 014°42'1010.4
2016-Feb-07 07:33N 55°34' E 014°57'1110.8
2016-Feb-07 06:33N 55°39' E 015°13'1110.5
2016-Feb-07 05:33N 55°45' E 015°29'89 9.8
2016-Feb-06 20:30N 56°56' E 017°05'9 9.8
2016-Feb-06 19:33N 57°04' E 017°13'10 9.7
2016-Feb-06 18:33N 57°12' E 017°23'10 9.8
2016-Feb-06 17:33N 57°21' E 017°33'22110.0
2016-Feb-05 19:28N 59°35' E 023°08'1010.6
2016-Feb-05 18:33N 59°38' E 023°26'1010.4
2016-Feb-05 17:33N 59°42' E 023°45'1010.5
2016-Feb-05 16:33N 59°44' E 024°05'6410.7
2016-Feb-05 10:33N 59°58' E 026°10'1110.7
2016-Feb-05 09:33N 60°01' E 026°30'1010.4
2016-Feb-05 08:33N 60°00' E 026°51'30 9.7
2016-Feb-05 05:29N 60°12' E 027°46'9 9.6
2016-Feb-05 04:33N 60°10' E 028°04'9 9.5
2016-Feb-05 03:33N 60°06' E 028°21'10 9.6
2016-Feb-05 02:33N 60°03' E 028°39'10 9.8
2016-Feb-05 01:30N 60°03' E 029°00'24 8.1
2016-Feb-04 22:33N 59°58' E 029°47'10 9.8
2016-Feb-04 21:33N 59°54' E 030°05'4 4.2
2016-Feb-04 20:28N 59°53' E 030°14'0 0.0
2016-Feb-04 19:28N 59°53' E 030°14'0 0.0
2016-Feb-04 18:28N 59°53' E 030°14'0 0.0
2016-Feb-04 17:28N 59°53' E 030°14'0 0.0
2016-Feb-04 16:22N 59°53' E 030°14'0 0.0
2016-Feb-04 15:31N 59°53' E 030°14'0 0.0
2016-Feb-04 14:31N 59°53' E 030°14'0 0.0
2016-Feb-04 13:31N 59°53' E 030°14'0 0.0
2016-Feb-04 12:31N 59°53' E 030°14'0 0.0
2016-Feb-04 11:28N 59°53' E 030°14'0 0.0
2016-Feb-04 10:28N 59°53' E 030°14'0 0.0
2016-Feb-04 09:28N 59°53' E 030°14'0 0.0
2016-Feb-04 08:31N 59°53' E 030°14'0 0.0
2016-Feb-04 07:31N 59°53' E 030°14'0 0.0
2016-Feb-04 06:28N 59°53' E 030°14'0 0.0
2016-Feb-04 05:28N 59°53' E 030°14'0 0.0
2016-Feb-04 04:31N 59°53' E 030°14'0 0.0
2016-Feb-04 03:28N 59°53' E 030°14'0 0.0
2016-Feb-04 02:28N 59°53' E 030°14'0 0.0
2016-Feb-04 01:28N 59°53' E 030°14'0 0.0
2016-Feb-04 00:28N 59°53' E 030°14'0 0.0
2016-Feb-03 23:31N 59°53' E 030°14'0 0.0
2016-Feb-03 22:28N 59°53' E 030°14'0 0.0
2016-Feb-03 21:28N 59°53' E 030°14'0 0.0
2016-Feb-03 20:22N 59°53' E 030°14'0 0.0
2016-Feb-03 19:34N 59°53' E 030°14'0 0.0
2016-Feb-03 18:34N 59°53' E 030°14'0 0.0
2016-Feb-03 17:27N 59°53' E 030°14'0 0.0
2016-Feb-03 16:18N 59°53' E 030°14'0 0.0
2016-Feb-03 15:30N 59°53' E 030°14'0 0.0
2016-Feb-03 14:33N 59°53' E 030°14'0 0.0
2016-Feb-03 13:27N 59°53' E 030°14'0 0.0
2016-Feb-03 12:27N 59°53' E 030°14'0 0.0
2016-Feb-03 11:33N 59°53' E 030°14'0 0.0
2016-Feb-03 10:33N 59°53' E 030°14'0 0.0
2016-Feb-03 09:27N 59°53' E 030°14'0 0.0
2016-Feb-03 08:33N 59°53' E 030°14'0 0.0
2016-Feb-03 07:33N 59°53' E 030°14'0 0.0
2016-Feb-03 06:33N 59°53' E 030°14'0 0.0
2016-Feb-03 05:33N 59°53' E 030°14'0 0.0
2016-Feb-03 04:33N 59°53' E 030°14'0 0.0
2016-Feb-03 03:33N 59°53' E 030°14'0 0.0
2016-Feb-03 02:33N 59°53' E 030°14'0 0.0
2016-Feb-03 01:33N 59°53' E 030°14'0 0.0
2016-Feb-03 00:27N 59°53' E 030°14'0 0.0
2016-Feb-02 23:33N 59°53' E 030°14'0 0.0
2016-Feb-02 21:33N 59°53' E 030°14'0 0.0
2016-Feb-02 20:30N 59°53' E 030°14'0 0.0
2016-Feb-02 19:06N 59°53' E 030°14'0 0.0
2016-Feb-02 18:30N 59°53' E 030°14'0 0.0
2016-Feb-02 17:27N 59°53' E 030°14'0 0.0
2016-Feb-02 16:33N 59°53' E 030°14'0 0.0
2016-Feb-02 15:30N 59°53' E 030°14'0 0.0
2016-Feb-02 14:33N 59°53' E 030°14'0 0.0
2016-Feb-02 13:30N 59°53' E 030°14'0 0.0
2016-Feb-02 12:33N 59°53' E 030°14'0 0.0
2016-Feb-02 11:33N 59°53' E 030°14'0 0.0
2016-Feb-02 10:33N 59°53' E 030°14'0 0.0
2016-Feb-02 09:33N 59°53' E 030°14'0 0.0
2016-Feb-02 08:20N 59°53' E 030°14'0 0.0
2016-Feb-02 07:29N 59°53' E 030°14'0 0.0
2016-Feb-02 06:26N 59°53' E 030°14'0 0.0
2016-Feb-02 05:26N 59°53' E 030°14'0 0.0
2016-Feb-02 04:32N 59°53' E 030°14'0 0.0
2016-Feb-02 03:08N 59°53' E 030°14'0 0.0
2016-Feb-02 02:29N 59°53' E 030°14'0 0.0
2016-Feb-02 01:32N 59°53' E 030°14'0 0.0
2016-Feb-02 00:32N 59°53' E 030°14'0 0.0
2016-Feb-01 23:29N 59°53' E 030°14'0 0.0
2016-Feb-01 22:32N 59°53' E 030°14'0 0.0
2016-Feb-01 21:32N 59°53' E 030°14'0 0.0
2016-Feb-01 20:29N 59°53' E 030°14'0 0.0
2016-Feb-01 19:32N 59°53' E 030°14'0 0.0
2016-Feb-01 18:32N 59°53' E 030°14'0 0.0
2016-Feb-01 17:32N 59°53' E 030°14'  
Track history (hours):
 
Tides and Currents Weather Stations Pressure Air Temp Water Temp Dewpoint Dewpoint Depression Visibility Wind Speed Wind Dir Waves Ship Positions

Vingaren

Last reported at 2016-Feb-11 16:33 UTC. Time now 2016-Feb-11 16:51 UTC.
Position N 55°06' E 014°15'.

Length 89 m; draft 3.9 m.

Type: Cargo ship. MMSI: 231844000.

Date/timePositionNaut miles runAvg speedWind from/ knotsBaromVisibWave heightAir tempDewpointWater temp
2016-Feb-11 16:33N 55°06' E 014°15'9 9.4
2016-Feb-11 15:33N 55°09' E 013°59'10 9.8
2016-Feb-11 14:33N 55°11' E 013°42'10 9.5
2016-Feb-11 13:29N 55°12' E 013°24'10 9.9
2016-Feb-11 12:31N 55°14' E 013°08'9 9.7
2016-Feb-11 11:33N 55°15' E 012°51'8 8.5
2016-Feb-11 10:33N 55°20' E 012°39'9 9.2
2016-Feb-11 09:33N 55°29' E 012°41'9 8.9
2016-Feb-11 08:33N 55°38' E 012°42'9 8.7
2016-Feb-11 07:33N 55°46' E 012°41'9 9.3
2016-Feb-11 06:33N 55°56' E 012°38'8 8.3
2016-Feb-11 05:33N 56°04' E 012°37'8 8.1
2016-Feb-11 04:33N 56°09' E 012°25'80 9.4
2016-Feb-10 20:05N 56°56' E 010°28'5 9.3
2016-Feb-10 19:33N 56°58' E 010°20'7 6.6
2016-Feb-10 18:33N 57°01' E 010°09'4 4.0
2016-Feb-10 17:28N 57°03' E 010°03'0 0.0
2016-Feb-10 16:31N 57°03' E 010°03'0 0.0
2016-Feb-10 15:31N 57°03' E 010°03'0 0.0
2016-Feb-10 14:31N 57°03' E 010°03'0 0.0
2016-Feb-10 13:28N 57°03' E 010°03'0 0.0
2016-Feb-10 12:31N 57°03' E 010°03'0 0.0
2016-Feb-10 11:31N 57°03' E 010°03'0 0.0
2016-Feb-10 10:31N 57°03' E 010°03'0 0.0
2016-Feb-10 09:31N 57°03' E 010°03'0 0.0
2016-Feb-10 08:28N 57°03' E 010°03'0 0.0
2016-Feb-10 07:28N 57°03' E 010°03'0 0.0
2016-Feb-10 06:31N 57°03' E 010°03'0 0.0
2016-Feb-10 05:31N 57°03' E 010°03'0 0.0
2016-Feb-10 04:31N 57°03' E 010°03'0 0.0
2016-Feb-10 03:31N 57°03' E 010°03'0 0.0
2016-Feb-10 02:31N 57°03' E 010°03'0 0.0
2016-Feb-10 01:19N 57°03' E 010°03'0 0.0
2016-Feb-10 00:31N 57°03' E 010°03'0 0.0
2016-Feb-09 23:31N 57°03' E 010°03'0 0.0
2016-Feb-09 22:31N 57°03' E 010°03'0 0.0
2016-Feb-09 21:28N 57°03' E 010°03'0 0.0
2016-Feb-09 20:31N 57°03' E 010°03'0 0.0
2016-Feb-09 19:31N 57°03' E 010°03'0 0.0
2016-Feb-09 18:31N 57°03' E 010°03'0 0.0
2016-Feb-09 17:33N 57°03' E 010°03'0 0.0
2016-Feb-09 16:33N 57°03' E 010°03'0 0.0
2016-Feb-09 15:33N 57°03' E 010°03'0 0.0
2016-Feb-09 14:33N 57°03' E 010°03'0 0.0
2016-Feb-09 13:30N 57°03' E 010°03'0 0.0
2016-Feb-09 12:33N 57°03' E 010°03'0 0.0
2016-Feb-09 11:33N 57°03' E 010°03'0 0.0
2016-Feb-09 10:33N 57°03' E 010°03'0 0.0
2016-Feb-09 09:33N 57°03' E 010°03'0 0.0
2016-Feb-09 08:33N 57°03' E 010°03'0 0.0
2016-Feb-09 07:30N 57°03' E 010°03'0 0.0
2016-Feb-09 06:30N 57°03' E 010°03'0 0.0
2016-Feb-09 05:33N 57°03' E 010°03'0 0.0
2016-Feb-09 04:30N 57°03' E 010°03'0 0.0
2016-Feb-09 03:30N 57°03' E 010°03'0 0.0
2016-Feb-09 02:30N 57°03' E 010°03'0 0.0
2016-Feb-09 01:33N 57°03' E 010°03'0 0.0
2016-Feb-09 00:33N 57°03' E 010°03'0 0.0
2016-Feb-08 23:30N 57°03' E 010°03'0 0.0
2016-Feb-08 22:30N 57°03' E 010°03'0 0.0
2016-Feb-08 21:33N 57°03' E 010°03'0 0.0
2016-Feb-08 20:33N 57°03' E 010°03'0 0.0
2016-Feb-08 19:30N 57°03' E 010°03'0 0.0
2016-Feb-08 18:30N 57°03' E 010°03'0 0.0
2016-Feb-08 17:33N 57°03' E 010°03'0 0.0
2016-Feb-08 16:27N 57°03' E 010°03'0 0.0
2016-Feb-08 15:30N 57°03' E 010°03'0 0.0
2016-Feb-08 14:30N 57°03' E 010°03'0 0.0
2016-Feb-08 13:33N 57°03' E 010°03'0 0.0
2016-Feb-08 12:33N 57°03' E 010°03'0 0.0
2016-Feb-08 11:33N 57°03' E 010°03'0 0.0
2016-Feb-08 10:33N 57°03' E 010°03'0 0.0
2016-Feb-08 09:24N 57°03' E 010°03'0 0.0
2016-Feb-08 08:23N 57°03' E 010°03'0 0.0
2016-Feb-08 07:17N 57°03' E 010°03'0 0.1
2016-Feb-08 06:33N 57°03' E 010°03'95 9.5
2016-Feb-07 20:31N 56°10' E 012°26'1212.2
2016-Feb-07 19:34N 56°02' E 012°40'1111.4
2016-Feb-07 18:33N 55°50' E 012°43'1211.9
2016-Feb-07 17:33N 55°39' E 012°42'1111.4
2016-Feb-07 16:34N 55°27' E 012°42'10 9.8
2016-Feb-07 15:33N 55°18' E 012°45'1010.0
2016-Feb-07 14:33N 55°16' E 013°03'1010.3
2016-Feb-07 13:33N 55°15' E 013°21'1110.9
2016-Feb-07 12:33N 55°14' E 013°40'1110.7
2016-Feb-07 11:33N 55°14' E 013°58'1010.2
2016-Feb-07 10:33N 55°14' E 014°16'1010.1
2016-Feb-07 09:33N 55°22' E 014°28'1010.0
2016-Feb-07 08:33N 55°28' E 014°42'1010.4
2016-Feb-07 07:33N 55°34' E 014°57'1110.8
2016-Feb-07 06:33N 55°39' E 015°13'1110.5
2016-Feb-07 05:33N 55°45' E 015°29'89 9.8
2016-Feb-06 20:30N 56°56' E 017°05'9 9.8
2016-Feb-06 19:33N 57°04' E 017°13'10 9.7
2016-Feb-06 18:33N 57°12' E 017°23'10 9.8
2016-Feb-06 17:33N 57°21' E 017°33'22110.0
2016-Feb-05 19:28N 59°35' E 023°08'1010.6
2016-Feb-05 18:33N 59°38' E 023°26'1010.4
2016-Feb-05 17:33N 59°42' E 023°45'1010.5
2016-Feb-05 16:33N 59°44' E 024°05'6410.7
2016-Feb-05 10:33N 59°58' E 026°10'1110.7
2016-Feb-05 09:33N 60°01' E 026°30'1010.4
2016-Feb-05 08:33N 60°00' E 026°51'30 9.7
2016-Feb-05 05:29N 60°12' E 027°46'9 9.6
2016-Feb-05 04:33N 60°10' E 028°04'9 9.5
2016-Feb-05 03:33N 60°06' E 028°21'10 9.6
2016-Feb-05 02:33N 60°03' E 028°39'10 9.8
2016-Feb-05 01:30N 60°03' E 029°00'24 8.1
2016-Feb-04 22:33N 59°58' E 029°47'10 9.8
2016-Feb-04 21:33N 59°54' E 030°05'4 4.2
2016-Feb-04 20:28N 59°53' E 030°14'0 0.0
2016-Feb-04 19:28N 59°53' E 030°14'0 0.0
2016-Feb-04 18:28N 59°53' E 030°14'0 0.0
2016-Feb-04 17:28N 59°53' E 030°14'0 0.0
2016-Feb-04 16:22N 59°53' E 030°14'0 0.0
2016-Feb-04 15:31N 59°53' E 030°14'0 0.0
2016-Feb-04 14:31N 59°53' E 030°14'0 0.0
2016-Feb-04 13:31N 59°53' E 030°14'0 0.0
2016-Feb-04 12:31N 59°53' E 030°14'0 0.0
2016-Feb-04 11:28N 59°53' E 030°14'0 0.0
2016-Feb-04 10:28N 59°53' E 030°14'0 0.0
2016-Feb-04 09:28N 59°53' E 030°14'0 0.0
2016-Feb-04 08:31N 59°53' E 030°14'0 0.0
2016-Feb-04 07:31N 59°53' E 030°14'0 0.0
2016-Feb-04 06:28N 59°53' E 030°14'0 0.0
2016-Feb-04 05:28N 59°53' E 030°14'0 0.0
2016-Feb-04 04:31N 59°53' E 030°14'0 0.0
2016-Feb-04 03:28N 59°53' E 030°14'0 0.0
2016-Feb-04 02:28N 59°53' E 030°14'0 0.0
2016-Feb-04 01:28N 59°53' E 030°14'0 0.0
2016-Feb-04 00:28N 59°53' E 030°14'0 0.0
2016-Feb-03 23:31N 59°53' E 030°14'0 0.0
2016-Feb-03 22:28N 59°53' E 030°14'0 0.0
2016-Feb-03 21:28N 59°53' E 030°14'0 0.0
2016-Feb-03 20:22N 59°53' E 030°14'0 0.0
2016-Feb-03 19:34N 59°53' E 030°14'0 0.0
2016-Feb-03 18:34N 59°53' E 030°14'0 0.0
2016-Feb-03 17:27N 59°53' E 030°14'0 0.0
2016-Feb-03 16:18N 59°53' E 030°14'0 0.0
2016-Feb-03 15:30N 59°53' E 030°14'0 0.0
2016-Feb-03 14:33N 59°53' E 030°14'0 0.0
2016-Feb-03 13:27N 59°53' E 030°14'0 0.0
2016-Feb-03 12:27N 59°53' E 030°14'0 0.0
2016-Feb-03 11:33N 59°53' E 030°14'0 0.0
2016-Feb-03 10:33N 59°53' E 030°14'0 0.0
2016-Feb-03 09:27N 59°53' E 030°14'0 0.0
2016-Feb-03 08:33N 59°53' E 030°14'0 0.0
2016-Feb-03 07:33N 59°53' E 030°14'0 0.0
2016-Feb-03 06:33N 59°53' E 030°14'0 0.0
2016-Feb-03 05:33N 59°53' E 030°14'0 0.0
2016-Feb-03 04:33N 59°53' E 030°14'0 0.0
2016-Feb-03 03:33N 59°53' E 030°14'0 0.0
2016-Feb-03 02:33N 59°53' E 030°14'0 0.0
2016-Feb-03 01:33N 59°53' E 030°14'0 0.0
2016-Feb-03 00:27N 59°53' E 030°14'0 0.0
2016-Feb-02 23:33N 59°53' E 030°14'0 0.0
2016-Feb-02 21:33N 59°53' E 030°14'0 0.0
2016-Feb-02 20:30N 59°53' E 030°14'0 0.0
2016-Feb-02 19:06N 59°53' E 030°14'0 0.0
2016-Feb-02 18:30N 59°53' E 030°14'0 0.0
2016-Feb-02 17:27N 59°53' E 030°14'0 0.0
2016-Feb-02 16:33N 59°53' E 030°14'0 0.0
2016-Feb-02 15:30N 59°53' E 030°14'0 0.0
2016-Feb-02 14:33N 59°53' E 030°14'0 0.0
2016-Feb-02 13:30N 59°53' E 030°14'0 0.0
2016-Feb-02 12:33N 59°53' E 030°14'0 0.0
2016-Feb-02 11:33N 59°53' E 030°14'0 0.0
2016-Feb-02 10:33N 59°53' E 030°14'0 0.0
2016-Feb-02 09:33N 59°53' E 030°14'0 0.0
2016-Feb-02 08:20N 59°53' E 030°14'0 0.0
2016-Feb-02 07:29N 59°53' E 030°14'0 0.0
2016-Feb-02 06:26N 59°53' E 030°14'0 0.0
2016-Feb-02 05:26N 59°53' E 030°14'0 0.0
2016-Feb-02 04:32N 59°53' E 030°14'0 0.0
2016-Feb-02 03:08N 59°53' E 030°14'0 0.0
2016-Feb-02 02:29N 59°53' E 030°14'0 0.0
2016-Feb-02 01:32N 59°53' E 030°14'0 0.0
2016-Feb-02 00:32N 59°53' E 030°14'0 0.0
2016-Feb-01 23:29N 59°53' E 030°14'0 0.0
2016-Feb-01 22:32N 59°53' E 030°14'0 0.0
2016-Feb-01 21:32N 59°53' E 030°14'0 0.0
2016-Feb-01 20:29N 59°53' E 030°14'0 0.0
2016-Feb-01 19:32N 59°53' E 030°14'0 0.0
2016-Feb-01 18:32N 59°53' E 030°14'0 0.0
2016-Feb-01 17:32N 59°53' E 030°14'  

Dump ship's entire track history